sensor_id;sensor_type;location;lat;lon;timestamp;temperature;humidity
46336;DHT22;31365;48.858;8.530;2023-04-24T00:00:35;12.10;99.90
46336;DHT22;31365;48.858;8.530;2023-04-24T00:03:05;12.10;99.90
46336;DHT22;31365;48.858;8.530;2023-04-24T00:05:35;12.10;99.90
46336;DHT22;31365;48.858;8.530;2023-04-24T00:08:04;12.10;99.90
46336;DHT22;31365;48.858;8.530;2023-04-24T00:10:33;12.10;99.90
46336;DHT22;31365;48.858;8.530;2023-04-24T00:13:01;12.10;99.90
46336;DHT22;31365;48.858;8.530;2023-04-24T00:15:29;12.10;99.90
46336;DHT22;31365;48.858;8.530;2023-04-24T00:17:58;12.10;99.90
46336;DHT22;31365;48.858;8.530;2023-04-24T00:20:28;12.10;99.90
46336;DHT22;31365;48.858;8.530;2023-04-24T00:22:58;12.10;99.90
46336;DHT22;31365;48.858;8.530;2023-04-24T00:25:26;12.10;99.90
46336;DHT22;31365;48.858;8.530;2023-04-24T00:27:54;12.20;99.90
46336;DHT22;31365;48.858;8.530;2023-04-24T00:30:22;12.20;99.90
46336;DHT22;31365;48.858;8.530;2023-04-24T00:32:50;12.20;99.90
46336;DHT22;31365;48.858;8.530;2023-04-24T00:35:19;12.20;99.90
46336;DHT22;31365;48.858;8.530;2023-04-24T00:37:47;12.20;99.90
46336;DHT22;31365;48.858;8.530;2023-04-24T00:40:17;12.20;99.90
46336;DHT22;31365;48.858;8.530;2023-04-24T00:42:46;12.20;99.90
46336;DHT22;31365;48.858;8.530;2023-04-24T00:45:14;12.10;99.90
46336;DHT22;31365;48.858;8.530;2023-04-24T00:47:43;12.20;99.90
46336;DHT22;31365;48.858;8.530;2023-04-24T00:50:15;12.20;99.90
46336;DHT22;31365;48.858;8.530;2023-04-24T00:52:43;12.20;99.90
46336;DHT22;31365;48.858;8.530;2023-04-24T00:55:12;12.20;99.90
46336;DHT22;31365;48.858;8.530;2023-04-24T00:57:42;12.20;99.90
46336;DHT22;31365;48.858;8.530;2023-04-24T01:00:12;12.10;99.90
46336;DHT22;31365;48.858;8.530;2023-04-24T01:02:43;12.00;99.90
46336;DHT22;31365;48.858;8.530;2023-04-24T01:05:14;12.00;99.90
46336;DHT22;31365;48.858;8.530;2023-04-24T01:07:45;12.00;99.90
46336;DHT22;31365;48.858;8.530;2023-04-24T01:10:16;11.90;99.90
46336;DHT22;31365;48.858;8.530;2023-04-24T01:12:48;11.90;99.90
46336;DHT22;31365;48.858;8.530;2023-04-24T01:15:17;11.90;99.90
46336;DHT22;31365;48.858;8.530;2023-04-24T01:17:45;11.80;99.90
46336;DHT22;31365;48.858;8.530;2023-04-24T01:20:14;11.80;99.90
46336;DHT22;31365;48.858;8.530;2023-04-24T01:22:44;11.80;99.90
46336;DHT22;31365;48.858;8.530;2023-04-24T01:25:14;11.90;99.90
46336;DHT22;31365;48.858;8.530;2023-04-24T01:27:43;11.90;99.90
46336;DHT22;31365;48.858;8.530;2023-04-24T01:30:12;11.90;99.90
46336;DHT22;31365;48.858;8.530;2023-04-24T01:32:41;12.00;99.90
46336;DHT22;31365;48.858;8.530;2023-04-24T01:35:11;12.00;99.90
46336;DHT22;31365;48.858;8.530;2023-04-24T01:37:39;12.00;99.90
46336;DHT22;31365;48.858;8.530;2023-04-24T01:40:10;12.00;99.90
46336;DHT22;31365;48.858;8.530;2023-04-24T01:42:38;12.00;99.90
46336;DHT22;31365;48.858;8.530;2023-04-24T01:45:10;12.10;99.90
46336;DHT22;31365;48.858;8.530;2023-04-24T01:47:40;12.10;99.90
46336;DHT22;31365;48.858;8.530;2023-04-24T01:50:09;12.10;99.90
46336;DHT22;31365;48.858;8.530;2023-04-24T01:52:38;12.10;99.90
46336;DHT22;31365;48.858;8.530;2023-04-24T01:55:10;12.00;99.90
46336;DHT22;31365;48.858;8.530;2023-04-24T01:57:38;12.00;99.90
46336;DHT22;31365;48.858;8.530;2023-04-24T02:00:08;11.90;99.90
46336;DHT22;31365;48.858;8.530;2023-04-24T02:02:40;11.80;99.90
46336;DHT22;31365;48.858;8.530;2023-04-24T02:05:12;11.80;99.90
46336;DHT22;31365;48.858;8.530;2023-04-24T02:07:40;11.70;99.90
46336;DHT22;31365;48.858;8.530;2023-04-24T02:10:10;11.70;99.90
46336;DHT22;31365;48.858;8.530;2023-04-24T02:12:41;11.70;99.90
46336;DHT22;31365;48.858;8.530;2023-04-24T02:15:10;11.70;99.90
46336;DHT22;31365;48.858;8.530;2023-04-24T02:17:39;11.60;99.90
46336;DHT22;31365;48.858;8.530;2023-04-24T02:20:08;11.50;99.90
46336;DHT22;31365;48.858;8.530;2023-04-24T02:22:37;11.40;99.90
46336;DHT22;31365;48.858;8.530;2023-04-24T02:25:06;11.40;99.90
46336;DHT22;31365;48.858;8.530;2023-04-24T02:27:36;11.30;99.90
46336;DHT22;31365;48.858;8.530;2023-04-24T02:30:06;11.30;99.90
46336;DHT22;31365;48.858;8.530;2023-04-24T02:32:35;11.20;99.90
46336;DHT22;31365;48.858;8.530;2023-04-24T02:35:03;11.10;99.90
46336;DHT22;31365;48.858;8.530;2023-04-24T02:37:32;11.10;99.90
46336;DHT22;31365;48.858;8.530;2023-04-24T02:40:01;11.00;99.90
46336;DHT22;31365;48.858;8.530;2023-04-24T02:42:29;11.00;99.90
46336;DHT22;31365;48.858;8.530;2023-04-24T02:44:58;10.90;99.90
46336;DHT22;31365;48.858;8.530;2023-04-24T02:47:27;10.90;99.90
46336;DHT22;31365;48.858;8.530;2023-04-24T02:49:55;11.00;99.90
46336;DHT22;31365;48.858;8.530;2023-04-24T02:52:23;11.00;99.90
46336;DHT22;31365;48.858;8.530;2023-04-24T02:54:52;11.00;99.90
46336;DHT22;31365;48.858;8.530;2023-04-24T02:57:20;11.00;99.90
46336;DHT22;31365;48.858;8.530;2023-04-24T02:59:49;11.10;99.90
46336;DHT22;31365;48.858;8.530;2023-04-24T03:02:18;11.10;99.90
46336;DHT22;31365;48.858;8.530;2023-04-24T03:04:47;11.20;99.90
46336;DHT22;31365;48.858;8.530;2023-04-24T03:07:16;11.30;99.90
46336;DHT22;31365;48.858;8.530;2023-04-24T03:09:47;11.30;99.90
46336;DHT22;31365;48.858;8.530;2023-04-24T03:12:15;11.30;99.90
46336;DHT22;31365;48.858;8.530;2023-04-24T03:14:44;11.30;99.90
46336;DHT22;31365;48.858;8.530;2023-04-24T03:17:12;11.40;99.90
46336;DHT22;31365;48.858;8.530;2023-04-24T03:19:42;11.30;99.90
46336;DHT22;31365;48.858;8.530;2023-04-24T03:22:12;11.40;99.90
46336;DHT22;31365;48.858;8.530;2023-04-24T03:24:42;11.20;99.90
46336;DHT22;31365;48.858;8.530;2023-04-24T03:27:13;11.20;99.90
46336;DHT22;31365;48.858;8.530;2023-04-24T03:30:02;11.10;99.90
46336;DHT22;31365;48.858;8.530;2023-04-24T03:32:43;11.00;99.90
46336;DHT22;31365;48.858;8.530;2023-04-24T03:35:16;10.80;99.90
46336;DHT22;31365;48.858;8.530;2023-04-24T03:37:44;10.50;99.90
46336;DHT22;31365;48.858;8.530;2023-04-24T03:40:33;10.30;99.90
46336;DHT22;31365;48.858;8.530;2023-04-24T03:43:04;10.20;99.90
46336;DHT22;31365;48.858;8.530;2023-04-24T03:45:32;10.10;99.90
46336;DHT22;31365;48.858;8.530;2023-04-24T03:48:01;10.00;99.90
46336;DHT22;31365;48.858;8.530;2023-04-24T03:50:30;10.00;99.90
46336;DHT22;31365;48.858;8.530;2023-04-24T03:53:00;9.90;99.90
46336;DHT22;31365;48.858;8.530;2023-04-24T03:55:35;9.80;99.90
46336;DHT22;31365;48.858;8.530;2023-04-24T03:58:03;9.80;99.90
46336;DHT22;31365;48.858;8.530;2023-04-24T04:00:31;9.80;99.90
46336;DHT22;31365;48.858;8.530;2023-04-24T04:03:21;9.80;99.90
46336;DHT22;31365;48.858;8.530;2023-04-24T04:05:51;9.80;99.90
46336;DHT22;31365;48.858;8.530;2023-04-24T04:08:20;9.80;99.90
46336;DHT22;31365;48.858;8.530;2023-04-24T04:10:49;9.70;99.90
46336;DHT22;31365;48.858;8.530;2023-04-24T04:13:17;9.60;99.90
46336;DHT22;31365;48.858;8.530;2023-04-24T04:15:46;9.60;99.90
46336;DHT22;31365;48.858;8.530;2023-04-24T04:18:15;9.60;99.90
46336;DHT22;31365;48.858;8.530;2023-04-24T04:20:43;9.60;99.90
46336;DHT22;31365;48.858;8.530;2023-04-24T04:23:15;9.60;99.90
46336;DHT22;31365;48.858;8.530;2023-04-24T04:25:56;9.50;99.90
46336;DHT22;31365;48.858;8.530;2023-04-24T04:28:35;9.50;99.90
46336;DHT22;31365;48.858;8.530;2023-04-24T04:31:05;9.50;99.90
46336;DHT22;31365;48.858;8.530;2023-04-24T04:33:34;9.50;99.90
46336;DHT22;31365;48.858;8.530;2023-04-24T04:36:06;9.50;99.90
46336;DHT22;31365;48.858;8.530;2023-04-24T04:38:41;9.50;99.90
46336;DHT22;31365;48.858;8.530;2023-04-24T04:41:27;9.50;99.90
46336;DHT22;31365;48.858;8.530;2023-04-24T04:43:57;9.50;99.90
46336;DHT22;31365;48.858;8.530;2023-04-24T04:46:26;9.50;99.90
46336;DHT22;31365;48.858;8.530;2023-04-24T04:49:02;9.50;99.90
46336;DHT22;31365;48.858;8.530;2023-04-24T04:51:30;9.50;99.90
46336;DHT22;31365;48.858;8.530;2023-04-24T04:54:02;9.50;99.90
46336;DHT22;31365;48.858;8.530;2023-04-24T04:56:31;9.50;99.90
46336;DHT22;31365;48.858;8.530;2023-04-24T04:59:00;9.50;99.90
46336;DHT22;31365;48.858;8.530;2023-04-24T05:01:28;9.50;99.90
46336;DHT22;31365;48.858;8.530;2023-04-24T05:03:57;9.50;99.90
46336;DHT22;31365;48.858;8.530;2023-04-24T05:06:25;9.50;99.90
46336;DHT22;31365;48.858;8.530;2023-04-24T05:08:58;9.50;99.90
46336;DHT22;31365;48.858;8.530;2023-04-24T05:11:49;9.60;99.90
46336;DHT22;31365;48.858;8.530;2023-04-24T05:14:17;9.60;99.90
46336;DHT22;31365;48.858;8.530;2023-04-24T05:16:46;9.70;99.90
46336;DHT22;31365;48.858;8.530;2023-04-24T05:19:16;9.80;99.90
46336;DHT22;31365;48.858;8.530;2023-04-24T05:21:45;9.80;99.90
46336;DHT22;31365;48.858;8.530;2023-04-24T05:24:14;9.80;99.90
46336;DHT22;31365;48.858;8.530;2023-04-24T05:26:50;9.90;99.90
46336;DHT22;31365;48.858;8.530;2023-04-24T05:29:23;10.00;99.90
46336;DHT22;31365;48.858;8.530;2023-04-24T05:31:53;10.10;99.90
46336;DHT22;31365;48.858;8.530;2023-04-24T05:34:22;10.20;99.90
46336;DHT22;31365;48.858;8.530;2023-04-24T05:36:54;10.30;99.90
46336;DHT22;31365;48.858;8.530;2023-04-24T05:39:22;10.50;99.90
46336;DHT22;31365;48.858;8.530;2023-04-24T05:41:54;10.60;99.90
46336;DHT22;31365;48.858;8.530;2023-04-24T05:44:25;10.60;99.90
46336;DHT22;31365;48.858;8.530;2023-04-24T05:46:53;10.60;99.90
46336;DHT22;31365;48.858;8.530;2023-04-24T05:49:22;10.60;99.90
46336;DHT22;31365;48.858;8.530;2023-04-24T05:51:50;10.60;99.90
46336;DHT22;31365;48.858;8.530;2023-04-24T05:54:19;10.60;99.90
46336;DHT22;31365;48.858;8.530;2023-04-24T05:56:49;10.60;99.90
46336;DHT22;31365;48.858;8.530;2023-04-24T05:59:33;10.60;99.90
46336;DHT22;31365;48.858;8.530;2023-04-24T06:02:02;10.60;99.90
46336;DHT22;31365;48.858;8.530;2023-04-24T06:04:32;10.60;99.90
46336;DHT22;31365;48.858;8.530;2023-04-24T06:07:01;10.60;99.90
46336;DHT22;31365;48.858;8.530;2023-04-24T06:09:29;10.60;99.90
46336;DHT22;31365;48.858;8.530;2023-04-24T06:11:57;10.40;99.90
46336;DHT22;31365;48.858;8.530;2023-04-24T06:14:36;10.40;99.90
46336;DHT22;31365;48.858;8.530;2023-04-24T06:17:18;10.40;99.90
46336;DHT22;31365;48.858;8.530;2023-04-24T06:19:47;10.30;99.90
46336;DHT22;31365;48.858;8.530;2023-04-24T06:22:16;10.40;99.90
46336;DHT22;31365;48.858;8.530;2023-04-24T06:24:45;10.40;99.90
46336;DHT22;31365;48.858;8.530;2023-04-24T06:27:14;10.50;99.90
46336;DHT22;31365;48.858;8.530;2023-04-24T06:29:43;10.50;99.90
46336;DHT22;31365;48.858;8.530;2023-04-24T06:32:12;10.50;99.90
46336;DHT22;31365;48.858;8.530;2023-04-24T06:34:40;10.50;99.90
46336;DHT22;31365;48.858;8.530;2023-04-24T06:37:09;10.50;99.90
46336;DHT22;31365;48.858;8.530;2023-04-24T06:39:37;10.50;99.90
46336;DHT22;31365;48.858;8.530;2023-04-24T06:42:05;10.50;99.90
46336;DHT22;31365;48.858;8.530;2023-04-24T06:44:35;10.50;99.90
46336;DHT22;31365;48.858;8.530;2023-04-24T06:47:09;10.60;99.90
46336;DHT22;31365;48.858;8.530;2023-04-24T06:49:40;10.60;99.90
46336;DHT22;31365;48.858;8.530;2023-04-24T06:52:09;10.70;99.90
46336;DHT22;31365;48.858;8.530;2023-04-24T06:54:38;10.70;99.90
46336;DHT22;31365;48.858;8.530;2023-04-24T06:57:06;10.70;99.90
46336;DHT22;31365;48.858;8.530;2023-04-24T06:59:34;10.60;99.90
46336;DHT22;31365;48.858;8.530;2023-04-24T07:02:02;10.60;99.90
46336;DHT22;31365;48.858;8.530;2023-04-24T07:04:32;10.60;99.90
46336;DHT22;31365;48.858;8.530;2023-04-24T07:07:01;10.50;99.90
46336;DHT22;31365;48.858;8.530;2023-04-24T07:09:30;10.40;99.90
46336;DHT22;31365;48.858;8.530;2023-04-24T07:11:58;10.50;99.90
46336;DHT22;31365;48.858;8.530;2023-04-24T07:14:27;10.40;99.90
46336;DHT22;31365;48.858;8.530;2023-04-24T07:16:55;10.40;99.90
46336;DHT22;31365;48.858;8.530;2023-04-24T07:19:24;10.40;99.90
46336;DHT22;31365;48.858;8.530;2023-04-24T07:21:54;10.40;99.90
46336;DHT22;31365;48.858;8.530;2023-04-24T07:24:22;10.40;99.90
46336;DHT22;31365;48.858;8.530;2023-04-24T07:26:53;10.40;99.90
46336;DHT22;31365;48.858;8.530;2023-04-24T07:29:22;10.30;99.90
46336;DHT22;31365;48.858;8.530;2023-04-24T07:31:50;10.20;99.90
46336;DHT22;31365;48.858;8.530;2023-04-24T07:34:18;10.20;99.90
46336;DHT22;31365;48.858;8.530;2023-04-24T07:36:46;10.20;99.90
46336;DHT22;31365;48.858;8.530;2023-04-24T07:39:16;10.10;99.90
46336;DHT22;31365;48.858;8.530;2023-04-24T07:41:45;10.10;99.90
46336;DHT22;31365;48.858;8.530;2023-04-24T07:44:14;10.10;99.90
46336;DHT22;31365;48.858;8.530;2023-04-24T07:46:42;10.30;99.90
46336;DHT22;31365;48.858;8.530;2023-04-24T07:49:10;10.40;99.90
46336;DHT22;31365;48.858;8.530;2023-04-24T07:51:41;10.60;99.90
46336;DHT22;31365;48.858;8.530;2023-04-24T07:54:09;10.80;99.90
46336;DHT22;31365;48.858;8.530;2023-04-24T07:56:38;11.00;99.90
46336;DHT22;31365;48.858;8.530;2023-04-24T07:59:08;11.20;99.90
46336;DHT22;31365;48.858;8.530;2023-04-24T08:01:36;11.50;99.90
46336;DHT22;31365;48.858;8.530;2023-04-24T08:04:05;11.80;99.90
46336;DHT22;31365;48.858;8.530;2023-04-24T08:06:34;12.10;99.90
46336;DHT22;31365;48.858;8.530;2023-04-24T08:09:03;12.30;99.90
46336;DHT22;31365;48.858;8.530;2023-04-24T08:11:31;12.40;99.90
46336;DHT22;31365;48.858;8.530;2023-04-24T08:14:01;12.30;99.90
46336;DHT22;31365;48.858;8.530;2023-04-24T08:16:29;12.20;99.90
46336;DHT22;31365;48.858;8.530;2023-04-24T08:18:57;12.10;99.90
46336;DHT22;31365;48.858;8.530;2023-04-24T08:21:26;12.10;99.90
46336;DHT22;31365;48.858;8.530;2023-04-24T08:23:54;11.80;99.90
46336;DHT22;31365;48.858;8.530;2023-04-24T08:26:22;11.60;99.90
46336;DHT22;31365;48.858;8.530;2023-04-24T08:28:51;11.50;99.90
46336;DHT22;31365;48.858;8.530;2023-04-24T08:31:21;11.50;99.90
46336;DHT22;31365;48.858;8.530;2023-04-24T08:33:49;11.60;99.90
46336;DHT22;31365;48.858;8.530;2023-04-24T08:36:17;11.70;99.90
46336;DHT22;31365;48.858;8.530;2023-04-24T08:38:46;11.80;99.90
46336;DHT22;31365;48.858;8.530;2023-04-24T08:41:15;11.70;99.90
46336;DHT22;31365;48.858;8.530;2023-04-24T08:43:44;11.60;99.90
46336;DHT22;31365;48.858;8.530;2023-04-24T08:46:15;11.50;99.90
46336;DHT22;31365;48.858;8.530;2023-04-24T08:48:46;11.50;99.90
46336;DHT22;31365;48.858;8.530;2023-04-24T08:51:15;11.50;99.90
46336;DHT22;31365;48.858;8.530;2023-04-24T08:53:45;11.30;99.90
46336;DHT22;31365;48.858;8.530;2023-04-24T08:56:14;11.20;99.90
46336;DHT22;31365;48.858;8.530;2023-04-24T08:58:44;11.30;99.90
46336;DHT22;31365;48.858;8.530;2023-04-24T09:01:12;11.30;99.90
46336;DHT22;31365;48.858;8.530;2023-04-24T09:03:41;11.30;99.90
46336;DHT22;31365;48.858;8.530;2023-04-24T09:06:11;11.20;99.90
46336;DHT22;31365;48.858;8.530;2023-04-24T09:08:40;11.30;99.90
46336;DHT22;31365;48.858;8.530;2023-04-24T09:11:11;11.30;99.90
46336;DHT22;31365;48.858;8.530;2023-04-24T09:13:39;11.50;99.90
46336;DHT22;31365;48.858;8.530;2023-04-24T09:16:08;11.60;99.90
46336;DHT22;31365;48.858;8.530;2023-04-24T09:18:36;11.70;99.90
46336;DHT22;31365;48.858;8.530;2023-04-24T09:21:07;11.90;99.90
46336;DHT22;31365;48.858;8.530;2023-04-24T09:23:38;12.30;99.90
46336;DHT22;31365;48.858;8.530;2023-04-24T09:26:09;12.60;99.90
46336;DHT22;31365;48.858;8.530;2023-04-24T09:28:39;12.80;99.90
46336;DHT22;31365;48.858;8.530;2023-04-24T09:31:12;12.90;99.90
46336;DHT22;31365;48.858;8.530;2023-04-24T09:33:53;13.00;99.90
46336;DHT22;31365;48.858;8.530;2023-04-24T09:36:28;13.10;99.90
46336;DHT22;31365;48.858;8.530;2023-04-24T09:39:01;13.20;99.90
46336;DHT22;31365;48.858;8.530;2023-04-24T09:41:32;13.10;99.90
46336;DHT22;31365;48.858;8.530;2023-04-24T09:44:11;12.70;99.90
46336;DHT22;31365;48.858;8.530;2023-04-24T09:46:41;12.30;99.90
46336;DHT22;31365;48.858;8.530;2023-04-24T09:49:11;11.90;99.90
46336;DHT22;31365;48.858;8.530;2023-04-24T09:51:42;11.80;99.90
46336;DHT22;31365;48.858;8.530;2023-04-24T09:54:16;11.80;99.90
46336;DHT22;31365;48.858;8.530;2023-04-24T09:56:48;11.70;99.90
46336;DHT22;31365;48.858;8.530;2023-04-24T09:59:18;11.70;99.90
46336;DHT22;31365;48.858;8.530;2023-04-24T10:01:47;11.80;99.90
46336;DHT22;31365;48.858;8.530;2023-04-24T10:04:18;11.60;99.90
46336;DHT22;31365;48.858;8.530;2023-04-24T10:06:47;11.50;99.90
46336;DHT22;31365;48.858;8.530;2023-04-24T10:09:19;11.50;99.90
46336;DHT22;31365;48.858;8.530;2023-04-24T10:11:49;11.40;99.90
46336;DHT22;31365;48.858;8.530;2023-04-24T10:14:20;11.30;99.90
46336;DHT22;31365;48.858;8.530;2023-04-24T10:16:51;11.20;99.90
46336;DHT22;31365;48.858;8.530;2023-04-24T10:19:21;11.10;99.90
46336;DHT22;31365;48.858;8.530;2023-04-24T10:21:51;11.00;99.90
46336;DHT22;31365;48.858;8.530;2023-04-24T10:24:22;10.90;99.90
46336;DHT22;31365;48.858;8.530;2023-04-24T10:26:50;10.80;99.90
46336;DHT22;31365;48.858;8.530;2023-04-24T10:29:20;10.80;99.90
46336;DHT22;31365;48.858;8.530;2023-04-24T10:31:49;11.10;99.90
46336;DHT22;31365;48.858;8.530;2023-04-24T10:34:20;11.40;99.90
46336;DHT22;31365;48.858;8.530;2023-04-24T10:36:51;11.60;99.90
46336;DHT22;31365;48.858;8.530;2023-04-24T10:39:25;12.00;99.90
46336;DHT22;31365;48.858;8.530;2023-04-24T10:41:54;12.30;99.90
46336;DHT22;31365;48.858;8.530;2023-04-24T10:44:24;12.70;99.90
46336;DHT22;31365;48.858;8.530;2023-04-24T10:46:54;12.90;99.90
46336;DHT22;31365;48.858;8.530;2023-04-24T10:49:28;12.70;99.90
46336;DHT22;31365;48.858;8.530;2023-04-24T10:52:00;12.40;99.90
46336;DHT22;31365;48.858;8.530;2023-04-24T10:54:36;12.30;99.90
46336;DHT22;31365;48.858;8.530;2023-04-24T10:57:28;11.90;99.90
46336;DHT22;31365;48.858;8.530;2023-04-24T11:00:20;11.30;99.90
46336;DHT22;31365;48.858;8.530;2023-04-24T12:36:05;13.20;99.90
46336;DHT22;31365;48.858;8.530;2023-04-24T12:38:33;13.80;99.90
46336;DHT22;31365;48.858;8.530;2023-04-24T12:41:08;13.90;99.90
46336;DHT22;31365;48.858;8.530;2023-04-24T12:43:37;13.90;99.90
46336;DHT22;31365;48.858;8.530;2023-04-24T12:46:05;13.80;99.90
46336;DHT22;31365;48.858;8.530;2023-04-24T12:48:33;14.30;99.90
46336;DHT22;31365;48.858;8.530;2023-04-24T12:51:02;14.40;99.90
46336;DHT22;31365;48.858;8.530;2023-04-24T12:53:32;14.20;99.90
46336;DHT22;31365;48.858;8.530;2023-04-24T12:56:00;14.10;99.90
46336;DHT22;31365;48.858;8.530;2023-04-24T12:58:28;14.40;99.90
46336;DHT22;31365;48.858;8.530;2023-04-24T13:00:56;15.40;99.90
46336;DHT22;31365;48.858;8.530;2023-04-24T13:03:24;16.40;99.90
46336;DHT22;31365;48.858;8.530;2023-04-24T13:05:53;18.00;99.90
46336;DHT22;31365;48.858;8.530;2023-04-24T13:08:21;18.90;99.90
46336;DHT22;31365;48.858;8.530;2023-04-24T13:10:51;18.90;99.90
46336;DHT22;31365;48.858;8.530;2023-04-24T13:13:20;18.60;99.90
46336;DHT22;31365;48.858;8.530;2023-04-24T13:15:48;18.10;99.90
46336;DHT22;31365;48.858;8.530;2023-04-24T13:18:16;17.10;99.90
46336;DHT22;31365;48.858;8.530;2023-04-24T13:20:44;15.90;99.90
46336;DHT22;31365;48.858;8.530;2023-04-24T13:23:14;15.20;99.90
46336;DHT22;31365;48.858;8.530;2023-04-24T13:25:43;14.60;99.90
46336;DHT22;31365;48.858;8.530;2023-04-24T13:28:12;14.30;99.90
46336;DHT22;31365;48.858;8.530;2023-04-24T13:30:41;14.50;99.90
46336;DHT22;31365;48.858;8.530;2023-04-24T13:33:32;15.00;99.90
46336;DHT22;31365;48.858;8.530;2023-04-24T13:36:01;15.30;99.90
46336;DHT22;31365;48.858;8.530;2023-04-24T13:38:29;15.20;99.90
46336;DHT22;31365;48.858;8.530;2023-04-24T13:40:58;16.20;99.90
46336;DHT22;31365;48.858;8.530;2023-04-24T13:43:27;16.70;99.90
46336;DHT22;31365;48.858;8.530;2023-04-24T13:45:56;16.20;99.90
46336;DHT22;31365;48.858;8.530;2023-04-24T13:48:26;15.60;99.90
46336;DHT22;31365;48.858;8.530;2023-04-24T13:50:54;16.30;99.90
46336;DHT22;31365;48.858;8.530;2023-04-24T13:53:22;17.50;99.90
46336;DHT22;31365;48.858;8.530;2023-04-24T13:55:50;18.70;99.90
46336;DHT22;31365;48.858;8.530;2023-04-24T13:58:19;19.50;99.90
46336;DHT22;31365;48.858;8.530;2023-04-24T14:00:48;19.20;99.90
46336;DHT22;31365;48.858;8.530;2023-04-24T14:03:16;19.00;99.90
46336;DHT22;31365;48.858;8.530;2023-04-24T14:05:45;18.90;99.90
46336;DHT22;31365;48.858;8.530;2023-04-24T14:08:13;18.20;99.90
46336;DHT22;31365;48.858;8.530;2023-04-24T14:10:42;18.10;99.90
46336;DHT22;31365;48.858;8.530;2023-04-24T14:13:11;19.10;99.90
46336;DHT22;31365;48.858;8.530;2023-04-24T14:15:39;19.50;99.90
46336;DHT22;31365;48.858;8.530;2023-04-24T14:18:09;20.80;99.90
46336;DHT22;31365;48.858;8.530;2023-04-24T14:20:37;22.00;99.90
46336;DHT22;31365;48.858;8.530;2023-04-24T14:23:07;22.20;99.90
46336;DHT22;31365;48.858;8.530;2023-04-24T14:25:35;20.80;99.90
46336;DHT22;31365;48.858;8.530;2023-04-24T14:28:05;19.40;99.90
46336;DHT22;31365;48.858;8.530;2023-04-24T14:30:34;18.50;99.90
46336;DHT22;31365;48.858;8.530;2023-04-24T14:33:04;17.50;99.90
46336;DHT22;31365;48.858;8.530;2023-04-24T14:35:35;16.80;99.90
46336;DHT22;31365;48.858;8.530;2023-04-24T14:38:04;16.50;99.90
46336;DHT22;31365;48.858;8.530;2023-04-24T14:40:33;16.30;99.90
46336;DHT22;31365;48.858;8.530;2023-04-24T14:43:21;16.10;99.90
46336;DHT22;31365;48.858;8.530;2023-04-24T14:45:50;16.80;99.90
46336;DHT22;31365;48.858;8.530;2023-04-24T14:48:18;17.90;99.90
46336;DHT22;31365;48.858;8.530;2023-04-24T14:50:48;18.80;99.90
46336;DHT22;31365;48.858;8.530;2023-04-24T14:53:17;20.20;99.90
46336;DHT22;31365;48.858;8.530;2023-04-24T14:55:45;21.10;99.90
46336;DHT22;31365;48.858;8.530;2023-04-24T14:58:14;21.10;99.90
46336;DHT22;31365;48.858;8.530;2023-04-24T15:00:42;20.60;99.90
46336;DHT22;31365;48.858;8.530;2023-04-24T15:03:10;20.80;99.90
46336;DHT22;31365;48.858;8.530;2023-04-24T15:05:39;20.00;99.90
46336;DHT22;31365;48.858;8.530;2023-04-24T15:08:09;18.60;99.90
46336;DHT22;31365;48.858;8.530;2023-04-24T15:10:37;17.80;99.90
46336;DHT22;31365;48.858;8.530;2023-04-24T15:13:05;16.40;99.90
46336;DHT22;31365;48.858;8.530;2023-04-24T15:15:33;15.60;99.90
46336;DHT22;31365;48.858;8.530;2023-04-24T15:18:02;15.20;99.90
46336;DHT22;31365;48.858;8.530;2023-04-24T15:20:31;15.00;99.90
46336;DHT22;31365;48.858;8.530;2023-04-24T15:22:59;14.70;99.90
46336;DHT22;31365;48.858;8.530;2023-04-24T15:25:30;14.40;99.90
46336;DHT22;31365;48.858;8.530;2023-04-24T15:27:58;14.20;99.90
46336;DHT22;31365;48.858;8.530;2023-04-24T15:30:28;14.10;99.90
46336;DHT22;31365;48.858;8.530;2023-04-24T15:32:59;14.10;99.90
46336;DHT22;31365;48.858;8.530;2023-04-24T15:35:28;14.00;99.90
46336;DHT22;31365;48.858;8.530;2023-04-24T15:37:56;14.00;99.90
46336;DHT22;31365;48.858;8.530;2023-04-24T15:40:24;14.00;99.90
46336;DHT22;31365;48.858;8.530;2023-04-24T15:42:54;13.70;99.90
46336;DHT22;31365;48.858;8.530;2023-04-24T15:45:22;13.50;99.90
46336;DHT22;31365;48.858;8.530;2023-04-24T15:47:51;13.50;99.90
46336;DHT22;31365;48.858;8.530;2023-04-24T15:50:19;13.40;99.90
46336;DHT22;31365;48.858;8.530;2023-04-24T15:52:48;13.30;99.90
46336;DHT22;31365;48.858;8.530;2023-04-24T15:55:17;13.30;99.90
46336;DHT22;31365;48.858;8.530;2023-04-24T15:57:45;13.20;99.90
46336;DHT22;31365;48.858;8.530;2023-04-24T16:00:16;13.10;99.90
46336;DHT22;31365;48.858;8.530;2023-04-24T16:02:45;13.10;99.90
46336;DHT22;31365;48.858;8.530;2023-04-24T16:05:14;13.10;99.90
46336;DHT22;31365;48.858;8.530;2023-04-24T16:07:43;13.00;99.90
46336;DHT22;31365;48.858;8.530;2023-04-24T16:10:11;12.90;99.90
46336;DHT22;31365;48.858;8.530;2023-04-24T16:12:39;12.90;99.90
46336;DHT22;31365;48.858;8.530;2023-04-24T16:15:09;12.90;99.90
46336;DHT22;31365;48.858;8.530;2023-04-24T16:17:39;12.80;99.90
46336;DHT22;31365;48.858;8.530;2023-04-24T16:20:08;12.80;99.90
46336;DHT22;31365;48.858;8.530;2023-04-24T16:22:37;12.80;99.90
46336;DHT22;31365;48.858;8.530;2023-04-24T16:25:07;12.80;99.90
46336;DHT22;31365;48.858;8.530;2023-04-24T16:27:36;12.80;99.90
46336;DHT22;31365;48.858;8.530;2023-04-24T16:30:05;12.80;99.90
46336;DHT22;31365;48.858;8.530;2023-04-24T16:32:35;12.70;99.90
46336;DHT22;31365;48.858;8.530;2023-04-24T16:35:05;12.70;99.90
46336;DHT22;31365;48.858;8.530;2023-04-24T16:37:33;12.80;99.90
46336;DHT22;31365;48.858;8.530;2023-04-24T16:40:02;13.00;99.90
46336;DHT22;31365;48.858;8.530;2023-04-24T16:42:36;13.00;99.90
46336;DHT22;31365;48.858;8.530;2023-04-24T16:45:06;12.90;99.90
46336;DHT22;31365;48.858;8.530;2023-04-24T16:47:35;12.90;99.90
46336;DHT22;31365;48.858;8.530;2023-04-24T16:50:05;12.70;99.90
46336;DHT22;31365;48.858;8.530;2023-04-24T16:52:34;12.60;99.90
46336;DHT22;31365;48.858;8.530;2023-04-24T16:55:03;12.70;99.90
46336;DHT22;31365;48.858;8.530;2023-04-24T16:57:32;12.60;99.90
46336;DHT22;31365;48.858;8.530;2023-04-24T17:00:00;12.60;99.90
46336;DHT22;31365;48.858;8.530;2023-04-24T17:02:30;12.50;99.90
46336;DHT22;31365;48.858;8.530;2023-04-24T17:04:58;12.40;99.90
46336;DHT22;31365;48.858;8.530;2023-04-24T17:07:28;12.50;99.90
46336;DHT22;31365;48.858;8.530;2023-04-24T17:09:57;12.40;99.90
46336;DHT22;31365;48.858;8.530;2023-04-24T17:12:25;12.40;99.90
46336;DHT22;31365;48.858;8.530;2023-04-24T17:14:54;12.40;99.90
46336;DHT22;31365;48.858;8.530;2023-04-24T17:17:24;12.30;99.90
46336;DHT22;31365;48.858;8.530;2023-04-24T17:19:52;12.20;99.90
46336;DHT22;31365;48.858;8.530;2023-04-24T17:22:21;12.20;99.90